sensor_id;sensor_type;location;lat;lon;timestamp;P1;durP1;ratioP1;P2;durP2;ratioP2
17864;SDS011;9058;52.018;4.202;2023-08-24T00:00:16;6.13;;;3.92;;
17864;SDS011;9058;52.018;4.202;2023-08-24T00:02:43;5.82;;;3.92;;
17864;SDS011;9058;52.018;4.202;2023-08-24T00:05:09;6.57;;;3.70;;
17864;SDS011;9058;52.018;4.202;2023-08-24T00:07:36;7.50;;;3.70;;
17864;SDS011;9058;52.018;4.202;2023-08-24T00:10:02;5.95;;;3.67;;
17864;SDS011;9058;52.018;4.202;2023-08-24T00:12:29;7.15;;;3.72;;
17864;SDS011;9058;52.018;4.202;2023-08-24T00:14:56;9.48;;;4.07;;
17864;SDS011;9058;52.018;4.202;2023-08-24T00:17:24;6.05;;;3.63;;
17864;SDS011;9058;52.018;4.202;2023-08-24T00:19:50;5.13;;;3.72;;
17864;SDS011;9058;52.018;4.202;2023-08-24T00:22:17;7.18;;;3.50;;
17864;SDS011;9058;52.018;4.202;2023-08-24T00:24:44;6.15;;;3.47;;
17864;SDS011;9058;52.018;4.202;2023-08-24T00:27:11;7.55;;;3.45;;
17864;SDS011;9058;52.018;4.202;2023-08-24T00:29:39;6.30;;;3.47;;
17864;SDS011;9058;52.018;4.202;2023-08-24T00:32:05;3.97;;;3.35;;
17864;SDS011;9058;52.018;4.202;2023-08-24T00:34:34;5.15;;;3.35;;
17864;SDS011;9058;52.018;4.202;2023-08-24T00:37:01;6.97;;;3.60;;
17864;SDS011;9058;52.018;4.202;2023-08-24T00:39:27;9.65;;;3.70;;
17864;SDS011;9058;52.018;4.202;2023-08-24T00:41:54;4.75;;;3.40;;
17864;SDS011;9058;52.018;4.202;2023-08-24T00:44:20;4.35;;;3.38;;
17864;SDS011;9058;52.018;4.202;2023-08-24T00:46:47;6.68;;;3.78;;
17864;SDS011;9058;52.018;4.202;2023-08-24T00:49:13;8.15;;;3.90;;
17864;SDS011;9058;52.018;4.202;2023-08-24T00:51:41;5.22;;;3.03;;
17864;SDS011;9058;52.018;4.202;2023-08-24T00:54:07;6.28;;;3.53;;
17864;SDS011;9058;52.018;4.202;2023-08-24T00:56:34;8.75;;;4.18;;
17864;SDS011;9058;52.018;4.202;2023-08-24T00:59:01;6.47;;;3.75;;
17864;SDS011;9058;52.018;4.202;2023-08-24T01:01:27;5.28;;;3.22;;
17864;SDS011;9058;52.018;4.202;2023-08-24T01:03:54;5.45;;;3.90;;
17864;SDS011;9058;52.018;4.202;2023-08-24T01:06:21;8.35;;;4.72;;
17864;SDS011;9058;52.018;4.202;2023-08-24T01:08:49;8.25;;;4.55;;
17864;SDS011;9058;52.018;4.202;2023-08-24T01:11:19;6.15;;;4.32;;
17864;SDS011;9058;52.018;4.202;2023-08-24T01:13:50;6.57;;;4.55;;
17864;SDS011;9058;52.018;4.202;2023-08-24T01:16:20;7.03;;;4.80;;
17864;SDS011;9058;52.018;4.202;2023-08-24T01:18:52;9.75;;;5.38;;
17864;SDS011;9058;52.018;4.202;2023-08-24T01:21:20;10.48;;;5.40;;
17864;SDS011;9058;52.018;4.202;2023-08-24T01:23:53;7.25;;;4.60;;
17864;SDS011;9058;52.018;4.202;2023-08-24T01:26:21;7.38;;;4.93;;
17864;SDS011;9058;52.018;4.202;2023-08-24T01:28:48;6.60;;;4.78;;
17864;SDS011;9058;52.018;4.202;2023-08-24T01:31:16;5.63;;;4.93;;
17864;SDS011;9058;52.018;4.202;2023-08-24T01:33:44;7.50;;;5.10;;
17864;SDS011;9058;52.018;4.202;2023-08-24T01:36:11;8.63;;;5.20;;
17864;SDS011;9058;52.018;4.202;2023-08-24T01:38:38;6.32;;;5.22;;
17864;SDS011;9058;52.018;4.202;2023-08-24T01:41:09;9.15;;;5.90;;
17864;SDS011;9058;52.018;4.202;2023-08-24T01:43:39;7.32;;;5.20;;
17864;SDS011;9058;52.018;4.202;2023-08-24T01:46:06;7.28;;;5.47;;
17864;SDS011;9058;52.018;4.202;2023-08-24T01:48:33;8.55;;;5.13;;
17864;SDS011;9058;52.018;4.202;2023-08-24T01:51:00;8.00;;;5.50;;
17864;SDS011;9058;52.018;4.202;2023-08-24T01:53:29;8.20;;;6.30;;
17864;SDS011;9058;52.018;4.202;2023-08-24T01:55:57;8.68;;;5.43;;
17864;SDS011;9058;52.018;4.202;2023-08-24T01:58:23;8.05;;;5.60;;
17864;SDS011;9058;52.018;4.202;2023-08-24T02:00:51;8.52;;;5.60;;
17864;SDS011;9058;52.018;4.202;2023-08-24T02:03:18;6.28;;;5.63;;
17864;SDS011;9058;52.018;4.202;2023-08-24T02:05:45;8.77;;;5.85;;
17864;SDS011;9058;52.018;4.202;2023-08-24T02:08:11;8.95;;;5.80;;
17864;SDS011;9058;52.018;4.202;2023-08-24T02:10:38;6.57;;;5.85;;
17864;SDS011;9058;52.018;4.202;2023-08-24T02:13:05;7.40;;;5.72;;
17864;SDS011;9058;52.018;4.202;2023-08-24T02:15:31;10.65;;;6.15;;
17864;SDS011;9058;52.018;4.202;2023-08-24T02:18:00;7.93;;;6.32;;
17864;SDS011;9058;52.018;4.202;2023-08-24T02:20:26;9.27;;;6.00;;
17864;SDS011;9058;52.018;4.202;2023-08-24T02:22:53;9.55;;;6.28;;
17864;SDS011;9058;52.018;4.202;2023-08-24T02:25:19;9.35;;;6.20;;
17864;SDS011;9058;52.018;4.202;2023-08-24T02:27:46;8.73;;;6.60;;
17864;SDS011;9058;52.018;4.202;2023-08-24T02:30:14;8.95;;;6.43;;
17864;SDS011;9058;52.018;4.202;2023-08-24T02:32:40;8.13;;;6.78;;
17864;SDS011;9058;52.018;4.202;2023-08-24T02:35:08;10.38;;;7.75;;
17864;SDS011;9058;52.018;4.202;2023-08-24T02:37:35;8.02;;;6.40;;
17864;SDS011;9058;52.018;4.202;2023-08-24T02:40:02;9.13;;;6.80;;
17864;SDS011;9058;52.018;4.202;2023-08-24T02:42:30;11.25;;;7.43;;
17864;SDS011;9058;52.018;4.202;2023-08-24T02:44:56;9.23;;;6.47;;
17864;SDS011;9058;52.018;4.202;2023-08-24T02:47:23;9.43;;;6.82;;
17864;SDS011;9058;52.018;4.202;2023-08-24T02:49:50;9.05;;;7.05;;
17864;SDS011;9058;52.018;4.202;2023-08-24T02:52:18;10.40;;;7.05;;
17864;SDS011;9058;52.018;4.202;2023-08-24T02:54:45;8.18;;;7.32;;
17864;SDS011;9058;52.018;4.202;2023-08-24T02:57:11;8.00;;;7.03;;
17864;SDS011;9058;52.018;4.202;2023-08-24T02:59:38;9.00;;;7.28;;
17864;SDS011;9058;52.018;4.202;2023-08-24T03:02:08;10.15;;;6.63;;
17864;SDS011;9058;52.018;4.202;2023-08-24T03:04:34;11.38;;;7.20;;
17864;SDS011;9058;52.018;4.202;2023-08-24T03:07:01;8.70;;;6.70;;
17864;SDS011;9058;52.018;4.202;2023-08-24T03:09:29;10.77;;;6.70;;
17864;SDS011;9058;52.018;4.202;2023-08-24T03:11:55;8.73;;;7.25;;
17864;SDS011;9058;52.018;4.202;2023-08-24T03:14:21;10.85;;;7.13;;
17864;SDS011;9058;52.018;4.202;2023-08-24T03:16:48;9.48;;;7.55;;
17864;SDS011;9058;52.018;4.202;2023-08-24T03:19:15;11.15;;;7.13;;
17864;SDS011;9058;52.018;4.202;2023-08-24T03:21:43;11.38;;;7.97;;
17864;SDS011;9058;52.018;4.202;2023-08-24T03:24:10;11.23;;;7.13;;
17864;SDS011;9058;52.018;4.202;2023-08-24T03:26:38;9.90;;;6.78;;
17864;SDS011;9058;52.018;4.202;2023-08-24T03:29:05;11.05;;;7.40;;
17864;SDS011;9058;52.018;4.202;2023-08-24T03:31:32;9.60;;;7.85;;
17864;SDS011;9058;52.018;4.202;2023-08-24T03:33:58;8.75;;;7.00;;
17864;SDS011;9058;52.018;4.202;2023-08-24T03:36:25;8.10;;;7.22;;
17864;SDS011;9058;52.018;4.202;2023-08-24T03:38:53;8.93;;;8.02;;
17864;SDS011;9058;52.018;4.202;2023-08-24T03:41:19;13.30;;;8.15;;
17864;SDS011;9058;52.018;4.202;2023-08-24T03:43:47;9.48;;;7.25;;
17864;SDS011;9058;52.018;4.202;2023-08-24T03:46:13;11.02;;;7.97;;
17864;SDS011;9058;52.018;4.202;2023-08-24T03:48:41;11.60;;;7.32;;
17864;SDS011;9058;52.018;4.202;2023-08-24T03:51:07;9.93;;;7.65;;
17864;SDS011;9058;52.018;4.202;2023-08-24T03:53:33;9.50;;;7.80;;
17864;SDS011;9058;52.018;4.202;2023-08-24T03:56:00;10.20;;;8.07;;
17864;SDS011;9058;52.018;4.202;2023-08-24T03:58:27;10.23;;;8.30;;
17864;SDS011;9058;52.018;4.202;2023-08-24T04:00:55;13.25;;;8.95;;
17864;SDS011;9058;52.018;4.202;2023-08-24T04:03:22;11.77;;;8.85;;
17864;SDS011;9058;52.018;4.202;2023-08-24T04:05:49;10.57;;;8.77;;
17864;SDS011;9058;52.018;4.202;2023-08-24T04:08:15;10.20;;;8.70;;
17864;SDS011;9058;52.018;4.202;2023-08-24T04:10:43;11.80;;;8.65;;
17864;SDS011;9058;52.018;4.202;2023-08-24T04:13:09;14.52;;;9.52;;
17864;SDS011;9058;52.018;4.202;2023-08-24T04:15:36;10.60;;;9.27;;
17864;SDS011;9058;52.018;4.202;2023-08-24T04:18:04;11.98;;;9.70;;
17864;SDS011;9058;52.018;4.202;2023-08-24T04:20:30;17.02;;;10.32;;
17864;SDS011;9058;52.018;4.202;2023-08-24T04:22:56;12.88;;;10.07;;
17864;SDS011;9058;52.018;4.202;2023-08-24T04:25:23;11.23;;;9.95;;
17864;SDS011;9058;52.018;4.202;2023-08-24T04:27:49;11.77;;;9.50;;
17864;SDS011;9058;52.018;4.202;2023-08-24T04:30:16;11.23;;;9.30;;
17864;SDS011;9058;52.018;4.202;2023-08-24T04:32:42;11.90;;;10.13;;
17864;SDS011;9058;52.018;4.202;2023-08-24T04:35:11;11.10;;;10.00;;
17864;SDS011;9058;52.018;4.202;2023-08-24T04:37:37;14.15;;;10.48;;
17864;SDS011;9058;52.018;4.202;2023-08-24T04:40:04;13.43;;;10.70;;
17864;SDS011;9058;52.018;4.202;2023-08-24T04:42:32;12.38;;;10.13;;
17864;SDS011;9058;52.018;4.202;2023-08-24T04:44:59;17.35;;;11.07;;
17864;SDS011;9058;52.018;4.202;2023-08-24T04:47:26;15.38;;;11.88;;
17864;SDS011;9058;52.018;4.202;2023-08-24T04:49:53;12.60;;;10.63;;
17864;SDS011;9058;52.018;4.202;2023-08-24T04:52:21;16.92;;;11.02;;
17864;SDS011;9058;52.018;4.202;2023-08-24T04:54:48;13.07;;;10.85;;
17864;SDS011;9058;52.018;4.202;2023-08-24T04:57:14;14.50;;;11.23;;
17864;SDS011;9058;52.018;4.202;2023-08-24T04:59:40;14.50;;;11.00;;
17864;SDS011;9058;52.018;4.202;2023-08-24T05:02:07;15.60;;;11.07;;
17864;SDS011;9058;52.018;4.202;2023-08-24T05:04:33;15.25;;;11.23;;
17864;SDS011;9058;52.018;4.202;2023-08-24T05:07:00;14.93;;;10.63;;
17864;SDS011;9058;52.018;4.202;2023-08-24T05:09:28;14.68;;;10.63;;
17864;SDS011;9058;52.018;4.202;2023-08-24T05:11:54;14.57;;;10.45;;
17864;SDS011;9058;52.018;4.202;2023-08-24T05:14:21;16.33;;;11.32;;
17864;SDS011;9058;52.018;4.202;2023-08-24T05:16:48;15.13;;;11.80;;
17864;SDS011;9058;52.018;4.202;2023-08-24T05:19:15;16.35;;;12.35;;
17864;SDS011;9058;52.018;4.202;2023-08-24T05:21:42;13.63;;;11.52;;
17864;SDS011;9058;52.018;4.202;2023-08-24T05:24:08;15.95;;;11.82;;
17864;SDS011;9058;52.018;4.202;2023-08-24T05:26:36;14.70;;;11.13;;
17864;SDS011;9058;52.018;4.202;2023-08-24T05:29:03;15.50;;;11.60;;
17864;SDS011;9058;52.018;4.202;2023-08-24T05:31:29;15.52;;;11.23;;
17864;SDS011;9058;52.018;4.202;2023-08-24T05:33:56;16.15;;;11.40;;
17864;SDS011;9058;52.018;4.202;2023-08-24T05:36:22;13.05;;;10.75;;
17864;SDS011;9058;52.018;4.202;2023-08-24T05:38:49;14.32;;;11.02;;
17864;SDS011;9058;52.018;4.202;2023-08-24T05:41:19;13.77;;;10.07;;
17864;SDS011;9058;52.018;4.202;2023-08-24T05:43:47;13.98;;;11.05;;
17864;SDS011;9058;52.018;4.202;2023-08-24T05:46:14;16.35;;;11.40;;
17864;SDS011;9058;52.018;4.202;2023-08-24T05:48:40;15.68;;;10.85;;
17864;SDS011;9058;52.018;4.202;2023-08-24T05:51:07;12.90;;;10.70;;
17864;SDS011;9058;52.018;4.202;2023-08-24T05:53:35;13.73;;;10.63;;
17864;SDS011;9058;52.018;4.202;2023-08-24T05:56:02;12.88;;;10.55;;
17864;SDS011;9058;52.018;4.202;2023-08-24T05:58:28;15.20;;;10.82;;
17864;SDS011;9058;52.018;4.202;2023-08-24T06:00:58;14.48;;;10.73;;
17864;SDS011;9058;52.018;4.202;2023-08-24T06:03:25;14.07;;;10.07;;
17864;SDS011;9058;52.018;4.202;2023-08-24T06:05:51;18.77;;;11.48;;
17864;SDS011;9058;52.018;4.202;2023-08-24T06:08:19;16.63;;;10.55;;
17864;SDS011;9058;52.018;4.202;2023-08-24T06:10:45;12.00;;;10.48;;
17864;SDS011;9058;52.018;4.202;2023-08-24T06:13:12;19.17;;;10.30;;
17864;SDS011;9058;52.018;4.202;2023-08-24T06:15:38;11.70;;;10.50;;
17864;SDS011;9058;52.018;4.202;2023-08-24T06:18:06;15.80;;;11.10;;
17864;SDS011;9058;52.018;4.202;2023-08-24T06:20:33;13.07;;;10.32;;
17864;SDS011;9058;52.018;4.202;2023-08-24T06:22:59;12.05;;;10.60;;
17864;SDS011;9058;52.018;4.202;2023-08-24T06:25:27;13.38;;;11.02;;
17864;SDS011;9058;52.018;4.202;2023-08-24T06:27:53;13.25;;;11.07;;
17864;SDS011;9058;52.018;4.202;2023-08-24T06:30:20;14.10;;;10.77;;
17864;SDS011;9058;52.018;4.202;2023-08-24T06:32:46;17.33;;;12.38;;
17864;SDS011;9058;52.018;4.202;2023-08-24T06:35:14;12.13;;;10.65;;
17864;SDS011;9058;52.018;4.202;2023-08-24T06:37:40;16.52;;;12.00;;
17864;SDS011;9058;52.018;4.202;2023-08-24T06:40:07;15.52;;;11.25;;
17864;SDS011;9058;52.018;4.202;2023-08-24T06:42:34;14.60;;;11.25;;
17864;SDS011;9058;52.018;4.202;2023-08-24T06:45:00;13.68;;;10.93;;
17864;SDS011;9058;52.018;4.202;2023-08-24T06:47:26;12.85;;;11.35;;
17864;SDS011;9058;52.018;4.202;2023-08-24T06:49:53;12.90;;;11.45;;
17864;SDS011;9058;52.018;4.202;2023-08-24T06:52:20;11.73;;;10.15;;
17864;SDS011;9058;52.018;4.202;2023-08-24T06:54:47;16.42;;;11.50;;
17864;SDS011;9058;52.018;4.202;2023-08-24T06:57:14;14.10;;;11.05;;
17864;SDS011;9058;52.018;4.202;2023-08-24T06:59:40;14.02;;;10.40;;
17864;SDS011;9058;52.018;4.202;2023-08-24T07:02:06;16.80;;;11.57;;
17864;SDS011;9058;52.018;4.202;2023-08-24T07:04:32;14.20;;;10.23;;
17864;SDS011;9058;52.018;4.202;2023-08-24T07:06:59;13.93;;;10.32;;
17864;SDS011;9058;52.018;4.202;2023-08-24T07:09:28;14.25;;;10.50;;
17864;SDS011;9058;52.018;4.202;2023-08-24T07:11:54;16.75;;;11.40;;
17864;SDS011;9058;52.018;4.202;2023-08-24T07:14:21;14.52;;;12.27;;
17864;SDS011;9058;52.018;4.202;2023-08-24T07:16:47;14.70;;;12.68;;
17864;SDS011;9058;52.018;4.202;2023-08-24T07:19:14;15.57;;;13.00;;
17864;SDS011;9058;52.018;4.202;2023-08-24T07:21:40;18.83;;;12.52;;
17864;SDS011;9058;52.018;4.202;2023-08-24T07:24:07;14.35;;;11.27;;
17864;SDS011;9058;52.018;4.202;2023-08-24T07:26:35;14.15;;;12.25;;
17864;SDS011;9058;52.018;4.202;2023-08-24T07:29:02;16.40;;;11.95;;
17864;SDS011;9058;52.018;4.202;2023-08-24T07:31:28;18.38;;;12.82;;
17864;SDS011;9058;52.018;4.202;2023-08-24T07:33:54;13.88;;;11.57;;
17864;SDS011;9058;52.018;4.202;2023-08-24T07:36:21;15.60;;;12.48;;
17864;SDS011;9058;52.018;4.202;2023-08-24T07:38:47;16.27;;;11.77;;
17864;SDS011;9058;52.018;4.202;2023-08-24T07:41:15;15.00;;;11.90;;
17864;SDS011;9058;52.018;4.202;2023-08-24T07:43:44;16.30;;;12.35;;
17864;SDS011;9058;52.018;4.202;2023-08-24T07:46:11;14.30;;;11.43;;
17864;SDS011;9058;52.018;4.202;2023-08-24T07:48:37;14.27;;;11.50;;
17864;SDS011;9058;52.018;4.202;2023-08-24T07:51:04;13.65;;;11.23;;
17864;SDS011;9058;52.018;4.202;2023-08-24T07:53:30;17.70;;;11.57;;
17864;SDS011;9058;52.018;4.202;2023-08-24T07:55:58;13.88;;;11.55;;
17864;SDS011;9058;52.018;4.202;2023-08-24T07:58:24;15.07;;;10.95;;
17864;SDS011;9058;52.018;4.202;2023-08-24T08:00:54;17.73;;;11.63;;
17864;SDS011;9058;52.018;4.202;2023-08-24T08:03:20;16.40;;;11.98;;
17864;SDS011;9058;52.018;4.202;2023-08-24T08:05:46;15.38;;;11.70;;
17864;SDS011;9058;52.018;4.202;2023-08-24T08:08:13;13.52;;;11.00;;
17864;SDS011;9058;52.018;4.202;2023-08-24T08:10:39;14.00;;;11.65;;
17864;SDS011;9058;52.018;4.202;2023-08-24T08:13:06;13.45;;;11.07;;
17864;SDS011;9058;52.018;4.202;2023-08-24T08:15:33;13.10;;;10.95;;
17864;SDS011;9058;52.018;4.202;2023-08-24T08:18:01;18.23;;;12.52;;
17864;SDS011;9058;52.018;4.202;2023-08-24T08:20:28;18.40;;;12.30;;
17864;SDS011;9058;52.018;4.202;2023-08-24T08:22:54;14.10;;;12.00;;
17864;SDS011;9058;52.018;4.202;2023-08-24T08:25:21;14.80;;;12.20;;
17864;SDS011;9058;52.018;4.202;2023-08-24T08:27:47;16.73;;;11.80;;
17864;SDS011;9058;52.018;4.202;2023-08-24T08:30:14;14.85;;;12.68;;
17864;SDS011;9058;52.018;4.202;2023-08-24T08:32:41;15.70;;;12.20;;
17864;SDS011;9058;52.018;4.202;2023-08-24T08:35:09;16.20;;;12.45;;
17864;SDS011;9058;52.018;4.202;2023-08-24T08:37:35;14.50;;;12.43;;
17864;SDS011;9058;52.018;4.202;2023-08-24T08:40:02;13.05;;;10.95;;
17864;SDS011;9058;52.018;4.202;2023-08-24T08:42:31;13.55;;;11.35;;
17864;SDS011;9058;52.018;4.202;2023-08-24T08:44:59;13.43;;;10.32;;
17864;SDS011;9058;52.018;4.202;2023-08-24T08:47:28;17.00;;;10.60;;
17864;SDS011;9058;52.018;4.202;2023-08-24T08:49:54;14.25;;;10.15;;
17864;SDS011;9058;52.018;4.202;2023-08-24T08:52:22;13.02;;;11.07;;
17864;SDS011;9058;52.018;4.202;2023-08-24T08:54:50;17.52;;;9.70;;
17864;SDS011;9058;52.018;4.202;2023-08-24T08:57:17;14.23;;;9.85;;
17864;SDS011;9058;52.018;4.202;2023-08-24T08:59:45;13.27;;;10.00;;
17864;SDS011;9058;52.018;4.202;2023-08-24T09:02:13;15.43;;;10.32;;
17864;SDS011;9058;52.018;4.202;2023-08-24T09:04:41;15.27;;;10.63;;
17864;SDS011;9058;52.018;4.202;2023-08-24T09:07:08;21.50;;;11.02;;
17864;SDS011;9058;52.018;4.202;2023-08-24T09:09:39;12.55;;;10.43;;
17864;SDS011;9058;52.018;4.202;2023-08-24T09:12:06;13.55;;;10.80;;
17864;SDS011;9058;52.018;4.202;2023-08-24T09:14:33;17.23;;;10.13;;
17864;SDS011;9058;52.018;4.202;2023-08-24T09:17:00;13.82;;;10.68;;
17864;SDS011;9058;52.018;4.202;2023-08-24T09:19:28;12.35;;;10.13;;
17864;SDS011;9058;52.018;4.202;2023-08-24T09:21:56;14.00;;;10.02;;
17864;SDS011;9058;52.018;4.202;2023-08-24T09:24:28;11.38;;;9.75;;
17864;SDS011;9058;52.018;4.202;2023-08-24T09:26:56;13.43;;;10.20;;
17864;SDS011;9058;52.018;4.202;2023-08-24T09:29:22;12.68;;;10.25;;
17864;SDS011;9058;52.018;4.202;2023-08-24T09:31:49;13.57;;;9.90;;
17864;SDS011;9058;52.018;4.202;2023-08-24T09:34:18;14.20;;;10.25;;
17864;SDS011;9058;52.018;4.202;2023-08-24T09:36:45;12.55;;;9.88;;
17864;SDS011;9058;52.018;4.202;2023-08-24T09:39:11;12.05;;;9.77;;
17864;SDS011;9058;52.018;4.202;2023-08-24T09:41:39;17.65;;;9.90;;
17864;SDS011;9058;52.018;4.202;2023-08-24T09:44:09;14.98;;;9.77;;
17864;SDS011;9058;52.018;4.202;2023-08-24T09:46:37;13.77;;;9.82;;
17864;SDS011;9058;52.018;4.202;2023-08-24T09:49:04;17.67;;;9.73;;
17864;SDS011;9058;52.018;4.202;2023-08-24T09:51:31;14.43;;;9.52;;
17864;SDS011;9058;52.018;4.202;2023-08-24T09:53:58;13.30;;;8.88;;
17864;SDS011;9058;52.018;4.202;2023-08-24T09:56:25;12.80;;;9.73;;
17864;SDS011;9058;52.018;4.202;2023-08-24T09:58:52;12.10;;;9.32;;
17864;SDS011;9058;52.018;4.202;2023-08-24T10:01:21;11.18;;;9.05;;
17864;SDS011;9058;52.018;4.202;2023-08-24T10:03:48;10.93;;;8.68;;
17864;SDS011;9058;52.018;4.202;2023-08-24T10:06:17;10.63;;;8.82;;
17864;SDS011;9058;52.018;4.202;2023-08-24T10:08:47;13.30;;;8.93;;
17864;SDS011;9058;52.018;4.202;2023-08-24T10:11:13;10.85;;;8.90;;
17864;SDS011;9058;52.018;4.202;2023-08-24T10:13:44;13.02;;;9.65;;
17864;SDS011;9058;52.018;4.202;2023-08-24T10:16:14;16.13;;;9.07;;
17864;SDS011;9058;52.018;4.202;2023-08-24T10:18:42;11.68;;;8.75;;
17864;SDS011;9058;52.018;4.202;2023-08-24T10:21:08;11.68;;;8.60;;
17864;SDS011;9058;52.018;4.202;2023-08-24T10:23:35;12.00;;;6.63;;
17864;SDS011;9058;52.018;4.202;2023-08-24T10:26:02;15.48;;;8.18;;
17864;SDS011;9058;52.018;4.202;2023-08-24T10:28:29;14.35;;;8.05;;
17864;SDS011;9058;52.018;4.202;2023-08-24T10:30:57;12.90;;;7.72;;
17864;SDS011;9058;52.018;4.202;2023-08-24T10:33:24;13.57;;;7.95;;
17864;SDS011;9058;52.018;4.202;2023-08-24T10:35:52;13.73;;;8.52;;
17864;SDS011;9058;52.018;4.202;2023-08-24T10:38:23;14.90;;;7.65;;
17864;SDS011;9058;52.018;4.202;2023-08-24T10:40:49;11.75;;;7.18;;
17864;SDS011;9058;52.018;4.202;2023-08-24T10:43:16;9.25;;;7.00;;
17864;SDS011;9058;52.018;4.202;2023-08-24T10:45:57;12.32;;;7.32;;
17864;SDS011;9058;52.018;4.202;2023-08-24T10:48:24;10.13;;;7.50;;
17864;SDS011;9058;52.018;4.202;2023-08-24T10:53:38;11.45;;;8.10;;
17864;SDS011;9058;52.018;4.202;2023-08-24T10:56:10;11.10;;;8.05;;
17864;SDS011;9058;52.018;4.202;2023-08-24T10:58:36;9.85;;;7.53;;
17864;SDS011;9058;52.018;4.202;2023-08-24T11:01:03;10.48;;;7.45;;
17864;SDS011;9058;52.018;4.202;2023-08-24T11:03:30;12.68;;;7.57;;
17864;SDS011;9058;52.018;4.202;2023-08-24T11:05:57;11.35;;;7.47;;
17864;SDS011;9058;52.018;4.202;2023-08-24T11:08:27;11.13;;;7.57;;
17864;SDS011;9058;52.018;4.202;2023-08-24T11:11:19;10.38;;;7.68;;
17864;SDS011;9058;52.018;4.202;2023-08-24T11:16:38;11.20;;;8.88;;
17864;SDS011;9058;52.018;4.202;2023-08-24T11:19:05;12.57;;;8.07;;
17864;SDS011;9058;52.018;4.202;2023-08-24T11:21:32;13.35;;;9.05;;
17864;SDS011;9058;52.018;4.202;2023-08-24T11:23:59;11.85;;;8.73;;
17864;SDS011;9058;52.018;4.202;2023-08-24T11:26:27;11.60;;;8.30;;
17864;SDS011;9058;52.018;4.202;2023-08-24T11:28:55;12.23;;;9.15;;
17864;SDS011;9058;52.018;4.202;2023-08-24T11:31:22;15.60;;;9.18;;
17864;SDS011;9058;52.018;4.202;2023-08-24T11:33:53;10.38;;;9.13;;
17864;SDS011;9058;52.018;4.202;2023-08-24T11:36:20;15.55;;;9.82;;
17864;SDS011;9058;52.018;4.202;2023-08-24T11:38:48;15.00;;;9.45;;
17864;SDS011;9058;52.018;4.202;2023-08-24T11:41:15;12.40;;;9.75;;
17864;SDS011;9058;52.018;4.202;2023-08-24T11:43:43;16.50;;;10.05;;
17864;SDS011;9058;52.018;4.202;2023-08-24T11:46:09;17.63;;;10.32;;
17864;SDS011;9058;52.018;4.202;2023-08-24T11:48:36;12.07;;;9.82;;
17864;SDS011;9058;52.018;4.202;2023-08-24T11:51:06;14.05;;;9.13;;
17864;SDS011;9058;52.018;4.202;2023-08-24T11:53:36;13.20;;;10.27;;
17864;SDS011;9058;52.018;4.202;2023-08-24T11:56:03;15.20;;;10.35;;
17864;SDS011;9058;52.018;4.202;2023-08-24T11:58:31;11.40;;;9.13;;
17864;SDS011;9058;52.018;4.202;2023-08-24T12:00:59;13.40;;;10.45;;
17864;SDS011;9058;52.018;4.202;2023-08-24T12:03:26;15.35;;;10.13;;
17864;SDS011;9058;52.018;4.202;2023-08-24T12:05:53;14.27;;;9.27;;
17864;SDS011;9058;52.018;4.202;2023-08-24T12:08:22;15.90;;;10.32;;
17864;SDS011;9058;52.018;4.202;2023-08-24T12:10:48;11.63;;;9.48;;
17864;SDS011;9058;52.018;4.202;2023-08-24T12:13:14;11.73;;;9.50;;
17864;SDS011;9058;52.018;4.202;2023-08-24T12:15:41;12.65;;;10.43;;
17864;SDS011;9058;52.018;4.202;2023-08-24T12:18:10;13.55;;;10.50;;
17864;SDS011;9058;52.018;4.202;2023-08-24T12:20:37;15.02;;;11.10;;
17864;SDS011;9058;52.018;4.202;2023-08-24T12:23:05;15.60;;;11.52;;
17864;SDS011;9058;52.018;4.202;2023-08-24T12:25:35;14.98;;;11.65;;
17864;SDS011;9058;52.018;4.202;2023-08-24T12:28:08;14.38;;;11.55;;
17864;SDS011;9058;52.018;4.202;2023-08-24T12:30:43;13.27;;;11.88;;
17864;SDS011;9058;52.018;4.202;2023-08-24T12:33:15;13.63;;;12.23;;
17864;SDS011;9058;52.018;4.202;2023-08-24T12:35:46;14.48;;;12.75;;
17864;SDS011;9058;52.018;4.202;2023-08-24T12:38:12;14.55;;;12.15;;
17864;SDS011;9058;52.018;4.202;2023-08-24T12:40:39;14.65;;;12.00;;
17864;SDS011;9058;52.018;4.202;2023-08-24T12:43:05;20.60;;;13.77;;
17864;SDS011;9058;52.018;4.202;2023-08-24T12:45:32;16.27;;;13.07;;
17864;SDS011;9058;52.018;4.202;2023-08-24T12:48:00;14.15;;;12.38;;
17864;SDS011;9058;52.018;4.202;2023-08-24T12:50:29;14.43;;;12.80;;
17864;SDS011;9058;52.018;4.202;2023-08-24T12:52:56;15.73;;;12.60;;
17864;SDS011;9058;52.018;4.202;2023-08-24T12:55:25;14.75;;;12.88;;
17864;SDS011;9058;52.018;4.202;2023-08-24T12:57:51;16.90;;;12.95;;
17864;SDS011;9058;52.018;4.202;2023-08-24T13:00:18;14.15;;;12.73;;
17864;SDS011;9058;52.018;4.202;2023-08-24T13:02:44;16.40;;;13.25;;
17864;SDS011;9058;52.018;4.202;2023-08-24T13:05:10;15.32;;;12.65;;
17864;SDS011;9058;52.018;4.202;2023-08-24T13:07:40;14.90;;;13.18;;
17864;SDS011;9058;52.018;4.202;2023-08-24T13:10:07;16.65;;;13.57;;
17864;SDS011;9058;52.018;4.202;2023-08-24T13:12:35;19.23;;;12.90;;
17864;SDS011;9058;52.018;4.202;2023-08-24T13:15:03;16.45;;;13.70;;
17864;SDS011;9058;52.018;4.202;2023-08-24T13:17:29;17.00;;;14.50;;
17864;SDS011;9058;52.018;4.202;2023-08-24T13:19:56;16.02;;;13.68;;
17864;SDS011;9058;52.018;4.202;2023-08-24T13:22:22;16.85;;;14.07;;
17864;SDS011;9058;52.018;4.202;2023-08-24T13:24:50;16.13;;;13.82;;
17864;SDS011;9058;52.018;4.202;2023-08-24T13:27:17;13.30;;;11.60;;
17864;SDS011;9058;52.018;4.202;2023-08-24T13:29:44;15.85;;;11.93;;
17864;SDS011;9058;52.018;4.202;2023-08-24T13:32:10;10.40;;;9.15;;
17864;SDS011;9058;52.018;4.202;2023-08-24T13:34:38;12.70;;;9.02;;
17864;SDS011;9058;52.018;4.202;2023-08-24T13:37:04;8.30;;;7.32;;
17864;SDS011;9058;52.018;4.202;2023-08-24T13:39:30;8.35;;;6.63;;
17864;SDS011;9058;52.018;4.202;2023-08-24T13:41:59;9.23;;;6.43;;
17864;SDS011;9058;52.018;4.202;2023-08-24T13:44:26;9.60;;;6.80;;
17864;SDS011;9058;52.018;4.202;2023-08-24T13:46:52;10.68;;;7.63;;
17864;SDS011;9058;52.018;4.202;2023-08-24T13:49:21;9.10;;;8.18;;
17864;SDS011;9058;52.018;4.202;2023-08-24T13:51:47;9.38;;;8.32;;
17864;SDS011;9058;52.018;4.202;2023-08-24T13:54:14;10.73;;;8.77;;
17864;SDS011;9058;52.018;4.202;2023-08-24T13:56:41;10.98;;;9.82;;
17864;SDS011;9058;52.018;4.202;2023-08-24T13:59:08;14.95;;;10.48;;
17864;SDS011;9058;52.018;4.202;2023-08-24T14:01:35;11.30;;;9.63;;
17864;SDS011;9058;52.018;4.202;2023-08-24T14:04:01;11.48;;;9.63;;
17864;SDS011;9058;52.018;4.202;2023-08-24T14:06:28;10.75;;;8.73;;
17864;SDS011;9058;52.018;4.202;2023-08-24T14:08:55;10.73;;;7.97;;
17864;SDS011;9058;52.018;4.202;2023-08-24T14:11:22;8.25;;;7.30;;
17864;SDS011;9058;52.018;4.202;2023-08-24T14:13:48;9.18;;;6.95;;
17864;SDS011;9058;52.018;4.202;2023-08-24T14:16:16;7.90;;;6.95;;
17864;SDS011;9058;52.018;4.202;2023-08-24T14:18:43;9.27;;;7.15;;
17864;SDS011;9058;52.018;4.202;2023-08-24T14:21:09;8.68;;;6.78;;
17864;SDS011;9058;52.018;4.202;2023-08-24T14:23:36;10.35;;;7.40;;
17864;SDS011;9058;52.018;4.202;2023-08-24T14:26:02;12.07;;;8.90;;
17864;SDS011;9058;52.018;4.202;2023-08-24T14:31:11;11.63;;;7.60;;
17864;SDS011;9058;52.018;4.202;2023-08-24T14:33:40;9.13;;;8.13;;
17864;SDS011;9058;52.018;4.202;2023-08-24T14:36:06;13.43;;;9.50;;
17864;SDS011;9058;52.018;4.202;2023-08-24T14:38:32;11.50;;;7.95;;
17864;SDS011;9058;52.018;4.202;2023-08-24T14:41:00;11.27;;;8.43;;
17864;SDS011;9058;52.018;4.202;2023-08-24T14:43:27;12.32;;;8.30;;
17864;SDS011;9058;52.018;4.202;2023-08-24T14:45:54;8.43;;;6.88;;
17864;SDS011;9058;52.018;4.202;2023-08-24T14:48:20;9.68;;;6.75;;
17864;SDS011;9058;52.018;4.202;2023-08-24T14:50:49;8.25;;;5.47;;
17864;SDS011;9058;52.018;4.202;2023-08-24T14:53:15;7.53;;;6.07;;